Time,TemperatureF,DewpointF,PressureIn,WindDirection,WindDirectionDegrees,WindSpeedMPH,WindSpeedGustMPH,Humidity,HourlyPrecipIn,Conditions,Clouds,dailyrainin,SoftwareType,DateUTC
2013-05-20 00:03:00,-999.0,-99.9,30.17,South,184,18.0,23.0,-999,-99.99,,,-99.99,,2013-05-20 04:03:00,
2013-05-20 00:13:00,71.0,-99.9,30.17,North,-999,-999.0,-999.0,-999,-99.99,,,-99.99,,2013-05-20 04:13:00,
2013-05-20 00:23:00,70.0,-99.9,30.17,North,-999,-999.0,-999.0,-999,-99.99,,,-99.99,,2013-05-20 04:23:00,
2013-05-20 00:33:00,70.0,-99.9,30.17,North,-999,-999.0,-999.0,-999,-99.99,,,-99.99,,2013-05-20 04:33:00,
2013-05-20 00:43:00,70.0,-99.9,30.17,South,172,17.0,20.0,-999,-99.99,,,-99.99,,2013-05-20 04:43:00,
2013-05-20 00:53:00,-999.0,-99.9,30.17,South,169,18.0,21.0,-999,-99.99,,,-99.99,,2013-05-20 04:53:00,
2013-05-20 01:02:00,-999.0,-99.9,30.16,SSE,166,15.0,21.0,-999,-99.99,,,-99.99,,2013-05-20 05:02:00,
2013-05-20 01:12:00,69.0,-99.9,30.16,North,-999,-999.0,-999.0,-999,-99.99,,,-99.99,,2013-05-20 05:12:00,
2013-05-20 01:22:00,-999.0,-99.9,30.16,South,175,18.0,21.0,-999,-99.99,,,-99.99,,2013-05-20 05:22:00,
2013-05-20 01:32:00,-999.0,-99.9,30.16,South,170,15.0,19.0,-999,-99.99,,,-99.99,,2013-05-20 05:32:00,
2013-05-20 01:42:00,-999.0,-99.9,30.16,South,171,13.0,19.0,-999,-99.99,,,-99.99,,2013-05-20 05:42:00,
2013-05-20 01:52:00,-999.0,-99.9,30.15,South,183,14.0,16.0,-999,-99.99,,,-99.99,,2013-05-20 05:52:00,
2013-05-20 02:01:00,-999.0,-99.9,30.15,South,183,13.0,15.0,-999,-99.99,,,-99.99,,2013-05-20 06:01:00,
2013-05-20 02:11:00,70.0,-99.9,30.15,North,-999,-999.0,-999.0,-999,-99.99,,,-99.99,,2013-05-20 06:11:00,
2013-05-20 02:21:00,-999.0,-99.9,30.14,SSW,192,12.0,15.0,-999,-99.99,,,-99.99,,2013-05-20 06:21:00,
2013-05-20 02:32:00,-999.0,-99.9,30.14,South,189,13.0,16.0,-999,-99.99,,,-99.99,,2013-05-20 06:32:00,
2013-05-20 02:42:00,70.0,-99.9,30.13,South,180,14.0,17.0,-999,-99.99,,,-99.99,,2013-05-20 06:42:00,
2013-05-20 02:52:00,-999.0,-99.9,30.13,South,178,17.0,21.0,-999,-99.99,,,-99.99,,2013-05-20 06:52:00,
2013-05-20 03:02:00,-999.0,-99.9,30.13,South,176,14.0,19.0,-999,-99.99,,,-99.99,,2013-05-20 07:02:00,
2013-05-20 03:12:00,-999.0,-99.9,30.13,South,175,13.0,17.0,-999,-99.99,,,-99.99,,2013-05-20 07:12:00,
2013-05-20 03:22:00,70.0,-99.9,30.13,North,-999,-999.0,-999.0,-999,-99.99,,,-99.99,,2013-05-20 07:22:00,
2013-05-20 03:32:00,70.0,-99.9,30.13,North,-999,-999.0,-999.0,-999,-99.99,,,-99.99,,2013-05-20 07:32:00,
2013-05-20 03:42:00,-999.0,-99.9,30.13,SSE,158,10.0,13.0,-999,-99.99,,,-99.99,,2013-05-20 07:42:00,
2013-05-20 03:52:00,70.0,-99.9,30.12,North,-999,-999.0,-999.0,-999,-99.99,,,-99.99,,2013-05-20 07:52:00,
2013-05-20 04:01:00,71.0,-99.9,30.12,North,-999,-999.0,-999.0,-999,-99.99,,,-99.99,,2013-05-20 08:01:00,
2013-05-20 04:11:00,71.0,-99.9,30.12,SSE,164,11.0,15.0,-999,-99.99,,,-99.99,,2013-05-20 08:11:00,
2013-05-20 04:22:00,71.0,-99.9,30.12,North,-999,-999.0,-999.0,-999,-99.99,,,-99.99,,2013-05-20 08:22:00,
2013-05-20 04:32:00,-999.0,-99.9,30.12,SSE,157,12.0,16.0,-999,-99.99,,,-99.99,,2013-05-20 08:32:00,
2013-05-20 04:42:00,-999.0,-99.9,30.12,SSE,161,14.0,18.0,-999,-99.99,,,-99.99,,2013-05-20 08:42:00,
2013-05-20 04:52:00,-999.0,-99.9,30.12,SSE,166,12.0,17.0,-999,-99.99,,,-99.99,,2013-05-20 08:52:00,
2013-05-20 05:02:00,71.0,-99.9,30.13,North,-999,-999.0,-999.0,-999,-99.99,,,-99.99,,2013-05-20 09:02:00,
2013-05-20 05:12:00,71.0,-99.9,30.13,North,-999,-999.0,-999.0,-999,-99.99,,,-99.99,,2013-05-20 09:12:00,
2013-05-20 05:22:00,71.0,-99.9,30.12,North,-999,-999.0,-999.0,-999,-99.99,,,-99.99,,2013-05-20 09:22:00,
2013-05-20 05:33:00,-999.0,-99.9,30.12,SSE,157,13.0,16.0,-999,-99.99,,,-99.99,,2013-05-20 09:33:00,
2013-05-20 05:43:00,70.0,-99.9,30.12,SSE,162,12.0,16.0,-999,-99.99,,,-99.99,,2013-05-20 09:43:00,
2013-05-20 05:53:00,-999.0,-99.9,30.13,SSE,156,10.0,15.0,-999,-99.99,,,-99.99,,2013-05-20 09:53:00,
2013-05-20 06:03:00,-999.0,-99.9,30.13,SSE,160,9.0,13.0,-999,-99.99,,,-99.99,,2013-05-20 10:03:00,
2013-05-20 06:12:00,70.0,-99.9,30.13,North,-999,-999.0,-999.0,-999,-99.99,,,-99.99,,2013-05-20 10:12:00,
2013-05-20 06:22:00,-999.0,-99.9,30.13,SSE,160,12.0,15.0,-999,-99.99,,,-99.99,,2013-05-20 10:22:00,
2013-05-20 06:33:00,-999.0,-99.9,30.13,SSE,160,12.0,15.0,-999,-99.99,,,-99.99,,2013-05-20 10:33:00,
2013-05-20 06:42:00,71.0,-99.9,30.14,North,-999,-999.0,-999.0,-999,-99.99,,,-99.99,,2013-05-20 10:42:00,
2013-05-20 06:53:00,71.0,-99.9,30.14,North,-999,-999.0,-999.0,-999,-99.99,,,-99.99,,2013-05-20 10:53:00,
2013-05-20 07:03:00,71.0,-99.9,30.14,North,-999,-999.0,-999.0,-999,-99.99,,,-99.99,,2013-05-20 11:03:00,
2013-05-20 07:12:00,71.0,-99.9,30.14,SSE,167,11.0,13.0,-999,-99.99,,,-99.99,,2013-05-20 11:12:00,
2013-05-20 07:22:00,71.0,-99.9,30.15,SSE,167,11.0,12.0,-999,-99.99,,,-99.99,,2013-05-20 11:22:00,
2013-05-20 07:32:00,71.0,-99.9,30.15,North,-999,-999.0,-999.0,-999,-99.99,,,-99.99,,2013-05-20 11:32:00,
2013-05-20 07:42:00,71.0,-99.9,30.15,North,-999,-999.0,-999.0,-999,-99.99,,,-99.99,,2013-05-20 11:42:00,
2013-05-20 07:52:00,71.0,-99.9,30.16,North,-999,-999.0,-999.0,-999,-99.99,,,-99.99,,2013-05-20 11:52:00,
2013-05-20 08:01:00,72.0,-99.9,30.16,North,-999,-999.0,-999.0,-999,-99.99,,,-99.99,,2013-05-20 12:01:00,
2013-05-20 08:12:00,-999.0,-99.9,30.16,South,178,10.0,12.0,-999,-99.99,,,-99.99,,2013-05-20 12:12:00,
2013-05-20 08:21:00,-999.0,-99.9,30.16,South,176,9.0,13.0,-999,-99.99,,,-99.99,,2013-05-20 12:21:00,
2013-05-20 08:32:00,-999.0,-99.9,30.17,SSE,168,10.0,14.0,-999,-99.99,,,-99.99,,2013-05-20 12:32:00,
2013-05-20 08:42:00,71.0,-99.9,30.16,SSE,168,13.0,15.0,-999,-99.99,,,-99.99,,2013-05-20 12:42:00,
2013-05-20 08:52:00,71.0,-99.9,30.17,North,-999,-999.0,-999.0,-999,-99.99,,,-99.99,,2013-05-20 12:52:00,
2013-05-20 09:01:00,71.0,-99.9,30.17,North,-999,-999.0,-999.0,-999,-99.99,,,-99.99,,2013-05-20 13:01:00,
2013-05-20 09:11:00,-999.0,-99.9,30.17,South,174,10.0,13.0,-999,-99.99,,,-99.99,,2013-05-20 13:11:00,
2013-05-20 09:22:00,-999.0,-99.9,30.17,South,188,11.0,14.0,-999,-99.99,,,-99.99,,2013-05-20 13:22:00,
2013-05-20 09:32:00,-999.0,-99.9,30.17,South,186,15.0,18.0,-999,-99.99,,,-99.99,,2013-05-20 13:32:00,
2013-05-20 09:42:00,-999.0,-99.9,30.17,South,182,14.0,18.0,-999,-99.99,,,-99.99,,2013-05-20 13:42:00,
2013-05-20 09:52:00,71.0,-99.9,30.17,North,-999,-999.0,-999.0,-999,-99.99,,,-99.99,,2013-05-20 13:52:00,
2013-05-20 10:01:00,71.0,-99.9,30.17,North,-999,-999.0,-999.0,-999,-99.99,,,-99.99,,2013-05-20 14:01:00,
2013-05-20 10:11:00,-999.0,-99.9,30.17,South,185,15.0,20.0,-999,-99.99,,,-99.99,,2013-05-20 14:11:00,
2013-05-20 10:22:00,71.0,-99.9,30.17,North,-999,-999.0,-999.0,-999,-99.99,,,-99.99,,2013-05-20 14:22:00,
2013-05-20 10:32:00,-999.0,-99.9,30.17,South,172,14.0,17.0,-999,-99.99,,,-99.99,,2013-05-20 14:32:00,
2013-05-20 10:42:00,71.0,-99.9,30.17,North,-999,-999.0,-999.0,-999,-99.99,,,-99.99,,2013-05-20 14:42:00,
2013-05-20 10:53:00,71.0,-99.9,30.17,North,-999,-999.0,-999.0,-999,-99.99,,,-99.99,,2013-05-20 14:53:00,
2013-05-20 11:01:00,72.0,-99.9,30.17,North,-999,-999.0,-999.0,-999,-99.99,,,-99.99,,2013-05-20 15:01:00,
2013-05-20 11:12:00,72.0,-99.9,30.17,North,-999,-999.0,-999.0,-999,-99.99,,,-99.99,,2013-05-20 15:12:00,
2013-05-20 11:22:00,73.0,-99.9,30.17,North,-999,-999.0,-999.0,-999,-99.99,,,-99.99,,2013-05-20 15:22:00,
2013-05-20 11:33:00,-999.0,-99.9,30.17,South,180,10.0,13.0,-999,-99.99,,,-99.99,,2013-05-20 15:33:00,
2013-05-20 11:43:00,73.0,-99.9,30.16,North,-999,-999.0,-999.0,-999,-99.99,,,-99.99,,2013-05-20 15:43:00,
2013-05-20 11:53:00,-999.0,-99.9,30.16,SSW,202,10.0,14.0,-999,-99.99,,,-99.99,,2013-05-20 15:53:00,
2013-05-20 12:03:00,73.0,-99.9,30.16,North,-999,-999.0,-999.0,-999,-99.99,,,-99.99,,2013-05-20 16:03:00,
2013-05-20 12:13:00,-999.0,-99.9,30.16,SSW,203,10.0,14.0,-999,-99.99,,,-99.99,,2013-05-20 16:13:00,
2013-05-20 12:23:00,-999.0,-99.9,30.15,SSW,199,11.0,15.0,-999,-99.99,,,-99.99,,2013-05-20 16:23:00,
2013-05-20 12:33:00,74.0,-99.9,30.15,North,-999,-999.0,-999.0,-999,-99.99,,,-99.99,,2013-05-20 16:33:00,
2013-05-20 12:42:00,-999.0,-99.9,30.15,South,186,11.0,14.0,-999,-99.99,,,-99.99,,2013-05-20 16:42:00,
2013-05-20 12:53:00,-999.0,-99.9,30.15,SSW,199,11.0,14.0,-999,-99.99,,,-99.99,,2013-05-20 16:53:00,
2013-05-20 13:03:00,75.0,-99.9,30.15,North,-999,-999.0,-999.0,-999,-99.99,,,-99.99,,2013-05-20 17:03:00,
2013-05-20 13:12:00,74.0,-99.9,30.15,North,-999,-999.0,-999.0,-999,-99.99,,,-99.99,,2013-05-20 17:12:00,
2013-05-20 13:22:00,-999.0,-99.9,30.15,SSW,204,14.0,18.0,-999,-99.99,,,-99.99,,2013-05-20 17:22:00,
2013-05-20 13:33:00,75.0,-99.9,30.14,North,-999,-999.0,-999.0,-999,-99.99,,,-99.99,,2013-05-20 17:33:00,
2013-05-20 13:45:00,75.0,-99.9,30.14,SSW,202,13.0,17.0,-999,-99.99,,,-99.99,,2013-05-20 17:45:00,
2013-05-20 13:53:00,76.0,-99.9,30.14,North,-999,-999.0,-999.0,-999,-99.99,,,-99.99,,2013-05-20 17:53:00,
2013-05-20 14:02:00,-999.0,-99.9,30.14,SSW,203,12.0,16.0,-999,-99.99,,,-99.99,,2013-05-20 18:02:00,
2013-05-20 14:23:00,-999.0,-99.9,30.14,SSW,207,12.0,16.0,-999,-99.99,,,-99.99,,2013-05-20 18:23:00,
2013-05-20 14:33:00,-999.0,-99.9,30.14,SSW,205,13.0,17.0,-999,-99.99,,,-99.99,,2013-05-20 18:33:00,
2013-05-20 14:42:00,-999.0,-99.9,30.14,SSW,204,14.0,17.0,-999,-99.99,,,-99.99,,2013-05-20 18:42:00,
2013-05-20 14:55:00,-999.0,-99.9,30.13,SSW,206,12.0,17.0,-999,-99.99,,,-99.99,,2013-05-20 18:55:00,
2013-05-20 15:04:00,75.0,-99.9,30.13,North,-999,-999.0,-999.0,-999,-99.99,,,-99.99,,2013-05-20 19:04:00,
2013-05-20 15:11:00,75.0,-99.9,30.13,SSW,207,12.0,17.0,-999,-99.99,,,-99.99,,2013-05-20 19:11:00,
2013-05-20 15:22:00,76.0,-99.9,30.13,North,-999,-999.0,-999.0,-999,-99.99,,,-99.99,,2013-05-20 19:22:00,
2013-05-20 15:33:00,75.0,-99.9,30.13,North,-999,-999.0,-999.0,-999,-99.99,,,-99.99,,2013-05-20 19:33:00,
2013-05-20 15:42:00,75.0,-99.9,30.13,North,-999,-999.0,-999.0,-999,-99.99,,,-99.99,,2013-05-20 19:42:00,
2013-05-20 15:53:00,-999.0,-99.9,30.12,South,186,12.0,13.0,-999,-99.99,,,-99.99,,2013-05-20 19:53:00,
2013-05-20 16:02:00,74.0,-99.9,30.12,North,-999,-999.0,-999.0,-999,-99.99,,,-99.99,,2013-05-20 20:02:00,
2013-05-20 16:12:00,-999.0,-99.9,30.12,South,186,12.0,15.0,-999,-99.99,,,-99.99,,2013-05-20 20:12:00,
2013-05-20 16:21:00,-999.0,-99.9,30.12,South,185,11.0,15.0,-999,-99.99,,,-99.99,,2013-05-20 20:21:00,
2013-05-20 16:33:00,-999.0,-99.9,30.11,South,185,12.0,13.0,-999,-99.99,,,-99.99,,2013-05-20 20:33:00,
2013-05-20 16:42:00,74.0,-99.9,30.11,South,185,11.0,14.0,-999,-99.99,,,-99.99,,2013-05-20 20:42:00,
2013-05-20 16:52:00,74.0,-99.9,30.11,North,-999,-999.0,-999.0,-999,-99.99,,,-99.99,,2013-05-20 20:52:00,
2013-05-20 17:01:00,-999.0,-99.9,30.10,South,183,11.0,14.0,-999,-99.99,,,-99.99,,2013-05-20 21:01:00,
2013-05-20 17:11:00,-999.0,-99.9,30.10,South,184,11.0,13.0,-999,-99.99,,,-99.99,,2013-05-20 21:11:00,
2013-05-20 17:22:00,74.0,-99.9,30.11,North,-999,-999.0,-999.0,-999,-99.99,,,-99.99,,2013-05-20 21:22:00,
2013-05-20 17:33:00,-999.0,-99.9,30.11,South,186,12.0,13.0,-999,-99.99,,,-99.99,,2013-05-20 21:33:00,
2013-05-20 17:43:00,-999.0,-99.9,30.11,South,186,12.0,13.0,-999,-99.99,,,-99.99,,2013-05-20 21:43:00,
2013-05-20 17:53:00,-999.0,-99.9,30.10,South,186,12.0,13.0,-999,-99.99,,,-99.99,,2013-05-20 21:53:00,
2013-05-20 18:03:00,-999.0,-99.9,30.11,South,190,12.0,13.0,-999,-99.99,,,-99.99,,2013-05-20 22:03:00,
2013-05-20 18:13:00,74.0,-99.9,30.10,SSW,196,11.0,14.0,-999,-99.99,,,-99.99,,2013-05-20 22:13:00,
2013-05-20 18:23:00,-999.0,-99.9,30.10,SSW,199,12.0,14.0,-999,-99.99,,,-99.99,,2013-05-20 22:23:00,
2013-05-20 18:33:00,74.0,-99.9,30.10,North,-999,-999.0,-999.0,-999,-99.99,,,-99.99,,2013-05-20 22:33:00,
2013-05-20 18:42:00,74.0,-99.9,30.10,North,-999,-999.0,-999.0,-999,-99.99,,,-99.99,,2013-05-20 22:42:00,
2013-05-20 18:53:00,-999.0,-99.9,30.09,SSW,199,10.0,13.0,-999,-99.99,,,-99.99,,2013-05-20 22:53:00,
2013-05-20 19:03:00,74.0,-99.9,30.09,North,-999,-999.0,-999.0,-999,-99.99,,,-99.99,,2013-05-20 23:03:00,
2013-05-20 19:12:00,74.0,-99.9,30.09,North,-999,-999.0,-999.0,-999,-99.99,,,-99.99,,2013-05-20 23:12:00,
2013-05-20 19:22:00,74.0,-99.9,30.09,North,-999,-999.0,-999.0,-999,-99.99,,,-99.99,,2013-05-20 23:22:00,
2013-05-20 19:32:00,-999.0,-99.9,30.09,SSW,201,10.0,13.0,-999,-99.99,,,-99.99,,2013-05-20 23:32:00,
2013-05-20 19:42:00,73.0,-99.9,30.09,SSW,201,11.0,14.0,-999,-99.99,,,-99.99,,2013-05-20 23:42:00,
2013-05-20 19:53:00,73.0,-99.9,30.09,North,-999,-999.0,-999.0,-999,-99.99,,,-99.99,,2013-05-20 23:53:00,
2013-05-20 20:01:00,73.0,-99.9,30.09,North,-999,-999.0,-999.0,-999,-99.99,,,-99.99,,2013-05-21 00:01:00,
2013-05-20 20:12:00,73.0,-99.9,30.09,North,-999,-999.0,-999.0,-999,-99.99,,,-99.99,,2013-05-21 00:12:00,
2013-05-20 20:22:00,-999.0,-99.9,30.09,SSW,201,9.0,12.0,-999,-99.99,,,-99.99,,2013-05-21 00:22:00,
2013-05-20 20:32:00,73.0,-99.9,30.09,North,-999,-999.0,-999.0,-999,-99.99,,,-99.99,,2013-05-21 00:32:00,
2013-05-20 20:42:00,-999.0,-99.9,30.09,SSW,199,9.0,11.0,-999,-99.99,,,-99.99,,2013-05-21 00:42:00,
2013-05-20 20:52:00,-999.0,-99.9,30.10,SSW,201,8.0,10.0,-999,-99.99,,,-99.99,,2013-05-21 00:52:00,
2013-05-20 21:01:00,72.0,-99.9,30.10,North,-999,-999.0,-999.0,-999,-99.99,,,-99.99,,2013-05-21 01:01:00,
2013-05-20 21:12:00,73.0,-99.9,30.10,North,-999,-999.0,-999.0,-999,-99.99,,,-99.99,,2013-05-21 01:12:00,
2013-05-20 21:22:00,-999.0,-99.9,30.10,SSW,194,9.0,10.0,-999,-99.99,,,-99.99,,2013-05-21 01:22:00,
2013-05-20 21:32:00,72.0,-99.9,30.10,North,-999,-999.0,-999.0,-999,-99.99,,,-99.99,,2013-05-21 01:32:00,
2013-05-20 21:42:00,-999.0,-99.9,30.10,SSW,199,9.0,10.0,-999,-99.99,,,-99.99,,2013-05-21 01:42:00,
2013-05-20 21:53:00,-999.0,-99.9,30.10,SSW,210,8.0,10.0,-999,-99.99,,,-99.99,,2013-05-21 01:53:00,
2013-05-20 22:02:00,-999.0,-99.9,30.10,SSW,204,8.0,11.0,-999,-99.99,,,-99.99,,2013-05-21 02:02:00,
2013-05-20 22:11:00,-999.0,-99.9,30.10,SSW,206,7.0,11.0,-999,-99.99,,,-99.99,,2013-05-21 02:11:00,
2013-05-20 22:21:00,73.0,-99.9,30.11,North,-999,-999.0,-999.0,-999,-99.99,,,-99.99,,2013-05-21 02:21:00,
2013-05-20 22:32:00,72.0,-99.9,30.11,North,-999,-999.0,-999.0,-999,-99.99,,,-99.99,,2013-05-21 02:32:00,
2013-05-20 22:42:00,-999.0,-99.9,30.10,SSW,194,8.0,10.0,-999,-99.99,,,-99.99,,2013-05-21 02:42:00,
2013-05-20 22:52:00,72.0,-99.9,30.10,North,-999,-999.0,-999.0,-999,-99.99,,,-99.99,,2013-05-21 02:52:00,
2013-05-20 23:02:00,72.0,-99.9,30.10,North,-999,-999.0,-999.0,-999,-99.99,,,-99.99,,2013-05-21 03:02:00,
2013-05-20 23:11:00,72.0,-99.9,30.10,North,-999,-999.0,-999.0,-999,-99.99,,,-99.99,,2013-05-21 03:11:00,
2013-05-20 23:21:00,-999.0,-99.9,30.10,South,182,8.0,10.0,-999,-99.99,,,-99.99,,2013-05-21 03:21:00,
2013-05-20 23:33:00,-999.0,-99.9,30.10,South,179,9.0,12.0,-999,-99.99,,,-99.99,,2013-05-21 03:33:00,
2013-05-20 23:43:00,72.0,-99.9,30.10,North,-999,-999.0,-999.0,-999,-99.99,,,-99.99,,2013-05-21 03:43:00,
2013-05-20 23:54:00,-999.0,-99.9,30.09,South,177,9.0,12.0,-999,-99.99,,,-99.99,,2013-05-21 03:54:00,